Station FPTM4 - Fairport, MI Image indicating link to RSS feed of recent meteorological observations for station FPTM4


Conditions at FPTM4 as of
(12:40 pm EDT)
1640 GMT on 04/14/2024:
     

Click on the graph icon in the table below to see a time series plot of the last five days of that observation.

5-day plot - Wind Direction Wind Direction (WDIR): W ( 280 deg true )
5-day plot - Wind Speed Wind Speed (WSPD): 7.0 kts
5-day plot - Wind Gust Wind Gust (GST): 8.0 kts
5-day plot - Air Temperature Air Temperature (ATMP): 47.8 °F
5-day plot - Wind Chill Wind Chill (CHILL): 44.1 °F
5-day plot - Wind Speed at 10 Meters Wind Speed at 10 meters (WSPD10M): 7.8 kts
5-day plot - Wind Speed at 20 Meters Wind Speed at 20 meters (WSPD20M): 7.8 kts
5-day plot -  Wind Speed, Wind Gust and Atmospheric Pressure Combined plot of Wind Speed, Gust, and Air Pressure
Previous observations
TIME
(EDT)
5-day plot - Wind Direction
WDIR
 
5-day plot - Wind Speed
WSPD
kts
5-day plot - Wind Gust
GST
kts
5-day plot - Wave Height
WVHT
ft
5-day plot - Dominant Wave Period
DPD
sec
5-day plot - Average Wave Period
APD
sec
5-day plot - Mean Wave Direction
MWD
 
5-day plot - Atmospheric Pressure
PRES
in
5-day plot - Pressure Tendency
PTDY
in
5-day plot - Air Temperature
ATMP
°F
5-day plot - Water Temperature
WTMP
°F
5-day plot - Dew Point
DEWP
°F
5-day plot - Salinity
SAL
psu
5-day plot - Visibility
VIS
nmi
5-day plot - Tide (above MLLW)
TIDE
ft
2024-04-14 12:30 pmWNW 7.0 8.0------ 47.5-----
2024-04-14 12:20 pmWNW 7.0 8.0------ 47.1-----
2024-04-14 12:10 pmWNW 8.0 8.0------ 46.6-----
2024-04-14 12:00 pmWNW 7.0 8.9------ 46.2-----
2024-04-14 11:50 amWNW 8.0 9.9------ 45.5-----
2024-04-14 11:40 amWNW 8.9 9.9------ 45.7-----
2024-04-14 11:30 amWNW 8.9 9.9------ 45.3-----
2024-04-14 11:20 amWNW 8.9 9.9------ 45.0-----
2024-04-14 11:10 amWNW 8.9 9.9------ 44.4-----
2024-04-14 11:00 amWNW 8.9 11.1------ 43.9-----
2024-04-14 10:50 amWNW 7.0 11.1------ 43.5-----
2024-04-14 10:40 amWNW 8.0 9.9------ 43.3-----
2024-04-14 10:30 am NW 8.0 11.1------ 44.1-----
2024-04-14 10:20 amWNW 8.0 11.1------ 43.2-----
2024-04-14 10:10 amWNW 8.0 11.1------ 43.0-----
2024-04-14 10:00 amWNW 11.1 12.0------ 42.4-----
2024-04-14 09:50 amWNW 8.0 9.9------ 43.2-----
2024-04-14 09:40 amWNW 8.0 9.9------ 43.5-----
2024-04-14 09:30 amWNW 8.9 9.9------ 44.4-----
2024-04-14 09:20 amWNW 7.0 9.9------ 45.5-----
2024-04-14 09:10 am NW 6.0 8.9------ 45.5-----
2024-04-14 09:00 amWNW 4.1 5.1------ 45.1-----
2024-04-14 08:50 amWNW 4.1 5.1------ 43.3-----
2024-04-14 08:40 amWNW 4.1 5.1------ 43.7-----
2024-04-14 08:30 amNNW 1.9 4.1------ 44.1-----
2024-04-14 08:20 amNNW 1.9 5.1------ 43.2-----
2024-04-14 08:10 am N 2.9 5.1------ 42.3-----
2024-04-14 08:00 am N 2.9 5.1------ 41.5-----
2024-04-14 07:50 amNNE 2.9 5.1------ 41.4-----
2024-04-14 07:40 amNNE 4.1 6.0------ 40.8-----
2024-04-14 07:30 am N 5.1 6.0------ 40.5-----
2024-04-14 07:20 amNNE 4.1 6.0------ 40.3-----
2024-04-14 07:10 amNNE 5.1 6.0------ 40.3-----
2024-04-14 07:00 amNNE 5.1 7.0------ 40.5-----
2024-04-14 06:50 amNNE 5.1 6.0------ 40.6-----
2024-04-14 06:40 amNNE 5.1 6.0------ 40.8-----
2024-04-14 06:30 amNNE 5.1 6.0------ 41.2-----
2024-04-14 06:20 am N 4.1 6.0------ 41.4-----
2024-04-14 06:10 am N 4.1 6.0------ 41.7-----
2024-04-14 06:00 am N 4.1 6.0------ 42.4-----
2024-04-14 05:50 am N 4.1 5.1------ 42.6-----
2024-04-14 05:40 amNNW 4.1 4.1------ 43.5-----
2024-04-14 05:30 amNNW 4.1 5.1------ 43.5-----
2024-04-14 05:20 amNNW 2.9 4.1------ 43.2-----
2024-04-14 05:10 am- 0.0 5.1------ 43.3-----
2024-04-14 05:00 am SW 2.9 6.0------ 43.5-----
2024-04-14 04:50 am S 7.0 8.9------ 44.1-----
2024-04-14 04:40 amSSW 1.0 6.0------ 45.3-----
2024-04-14 04:30 am- 0.0 6.0------ 46.0-----
2024-04-14 04:20 am- 0.0 1.9------ 44.8-----
2024-04-14 04:10 am- 0.0 8.9------ 45.0-----
2024-04-14 04:00 am S 9.9 11.1------ 44.2-----
2024-04-14 03:50 am S 5.1 9.9------ 43.0-----
2024-04-14 03:40 am S 8.9 14.0------ 43.5-----
2024-04-14 03:30 am S 11.1 15.9------ 44.2-----
2024-04-14 03:20 am S 14.0 18.1------ 43.5-----
2024-04-14 03:10 am S 15.9 19.0------ 44.4-----
2024-04-14 03:00 am S 15.9 20.0------ 45.5-----
2024-04-14 02:50 am SE 17.1 22.0------ 43.5-----
2024-04-14 02:40 am S 6.0 7.0------ 43.3-----
2024-04-14 02:30 am SE 5.1 9.9------ 43.5-----
2024-04-14 02:20 am SE 8.9 11.1------ 43.5-----
2024-04-14 02:10 amSSE 8.0 9.9------ 43.5-----
2024-04-14 02:00 amESE 7.0 8.0------ 44.1-----
2024-04-14 01:50 amESE 7.0 9.9------ 44.6-----
2024-04-14 01:40 am SE 8.0 11.1------ 44.1-----
2024-04-14 01:30 amENE 6.0 8.0------ 43.9-----
2024-04-14 01:20 am E 4.1 9.9------ 45.9-----
2024-04-14 01:10 amENE 7.0 11.1------ 43.9-----
2024-04-14 01:00 amENE 4.1 8.9------ 44.1-----
2024-04-14 12:50 amESE 8.9 12.0------ 45.1-----
2024-04-14 12:40 am SE 8.9 9.9------ 46.8-----
2024-04-14 12:30 amSSE 9.9 17.1------ 46.8-----
2024-04-14 12:20 amSSE 15.0 18.1------ 47.5-----
2024-04-14 12:10 amSSE 15.0 18.1------ 47.7-----
2024-04-14 12:00 amSSE 15.9 19.0------ 47.7-----
2024-04-13 11:50 pmSSE 15.9 21.0------ 48.7-----
2024-04-13 11:40 pmSSE 20.0 22.9------ 50.2-----
2024-04-13 11:30 pmSSE 18.1 26.0------ 50.5-----
2024-04-13 11:20 pm S 20.0 26.0------ 50.2-----
2024-04-13 11:10 pm S 21.0 24.1------ 47.8-----
2024-04-13 11:00 pm S 22.0 26.0------ 47.1-----
2024-04-13 10:50 pm S 21.0 24.1------ 45.5-----
2024-04-13 10:40 pm S 20.0 24.1------ 44.4-----
2024-04-13 10:30 pm S 19.0 24.1------ 44.2-----
2024-04-13 10:20 pm S 18.1 24.1------ 44.2-----
2024-04-13 10:10 pm S 18.1 24.1------ 44.4-----
2024-04-13 10:00 pm S 19.0 22.0------ 45.1-----
2024-04-13 09:50 pm S 15.9 21.0------ 45.3-----
2024-04-13 09:40 pm S 15.9 19.0------ 45.3-----
2024-04-13 09:30 pm S 15.0 19.0------ 44.4-----
2024-04-13 09:20 pm S 14.0 18.1------ 44.4-----
2024-04-13 09:10 pm S 13.0 17.1------ 44.8-----
2024-04-13 09:00 pm S 13.0 18.1------ 44.2-----
2024-04-13 08:50 pm S 11.1 17.1------ 44.1-----
2024-04-13 08:40 pmSSE 13.0 15.9------ 44.1-----
2024-04-13 08:30 pmSSE 8.9 14.0------ 43.9-----
2024-04-13 08:20 pmSSE 8.9 15.0------ 43.7-----
2024-04-13 08:10 pmSSE 11.1 15.9------ 43.9-----
2024-04-13 08:00 pmSSE 12.0 18.1------ 44.1-----
2024-04-13 07:50 pmSSE 15.9 19.0------ 44.4-----
2024-04-13 07:40 pmSSE 15.0 20.0------ 43.9-----
2024-04-13 07:30 pm S 15.9 22.0------ 44.1-----
2024-04-13 07:20 pm S 15.0 20.0------ 43.7-----
2024-04-13 07:10 pm S 15.9 19.0------ 43.0-----
2024-04-13 07:00 pm S 15.9 20.0------ 43.0-----
2024-04-13 06:50 pm S 17.1 22.0------ 43.3-----
2024-04-13 06:40 pm S 20.0 24.1------ 43.3-----
2024-04-13 06:30 pm S 18.1 22.0------ 42.6-----
2024-04-13 06:20 pm S 15.9 20.0------ 42.4-----
2024-04-13 06:10 pm S 17.1 19.0------ 42.3-----
2024-04-13 06:00 pm S 15.9 18.1------ 42.8-----
2024-04-13 05:50 pm S 15.9 19.0------ 42.6-----
2024-04-13 05:40 pm S 17.1 19.0------ 43.0-----
2024-04-13 05:30 pm S 15.9 19.0------ 43.3-----
2024-04-13 05:20 pm S 15.9 19.0------ 43.5-----
2024-04-13 05:10 pm S 18.1 21.0------ 43.5-----
2024-04-13 05:00 pm S 18.1 21.0------ 43.5-----
2024-04-13 04:50 pm S 19.0 20.0------ 43.3-----
2024-04-13 04:40 pm S 15.0 17.1------ 43.2-----
2024-04-13 04:30 pm S 15.0 17.1------ 43.5-----
2024-04-13 04:20 pm S 13.0 15.0------ 43.9-----
2024-04-13 04:10 pm S 13.0 15.9------ 43.7-----
2024-04-13 04:00 pm S 15.0 17.1------ 44.1-----
2024-04-13 03:50 pm S 15.0 18.1------ 43.0-----
2024-04-13 03:40 pm S 12.0 15.0------ 42.4-----
2024-04-13 03:30 pm S 14.0 15.9------ 42.4-----
2024-04-13 03:20 pm S 15.9 18.1------ 43.0-----
2024-04-13 03:10 pm S 13.0 15.9------ 43.7-----
2024-04-13 03:00 pm S 11.1 13.0------ 42.4-----
2024-04-13 02:50 pm S 5.1 9.9------ 42.3-----
2024-04-13 02:40 pm S 8.0 11.1------ 43.0-----
2024-04-13 02:30 pm S 7.0 8.9------ 43.0-----
2024-04-13 02:20 pm S 8.0 8.9------ 43.2-----
2024-04-13 02:10 pm S 7.0 8.9------ 43.2-----
2024-04-13 02:00 pmSSW 8.9 9.9------ 42.6-----
2024-04-13 01:50 pm S 7.0 8.9------ 42.3-----
2024-04-13 01:40 pmSSW 8.9 9.9------ 43.0-----
2024-04-13 01:30 pmSSW 9.9 11.1------ 42.6-----
2024-04-13 01:20 pmSSW 11.1 11.1------ 42.8-----
2024-04-13 01:10 pmSSW 9.9 11.1------ 42.4-----
2024-04-13 01:00 pmSSW 9.9 11.1------ 42.1-----
2024-04-13 12:50 pmSSW 8.0 9.9------ 43.5-----